Flight Track Log - Related Links

Times and Time Zones

All times are in EDT time to prevent confusion due to time zone crossing. See the SKW5535 flight status page for this flight to view local times or setup timezone preferences in your user account.

Time Position Orientation Groundspeed Altitude Reporting Facility
EDT Latitude Longitude Course Direction KTS MPH feet Rate Location/Type
Fri 03:26:37 PM 46.9014 -114.0689 139° Southeast 165 190 4,100  Level Salt Lake Center
Fri 03:27:39 PM 46.8442 -114.0708 181° South 216 249 5,800 1,935 Climbing Salt Lake Center
Fri 03:28:41 PM 46.7706 -114.0536 171° South 248 285 8,100 1,887 Climbing Salt Lake Center
Fri 03:29:00 PM 46.6899 -113.7318 180° South  Level Estimated
Fri 03:29:43 PM 46.7175 -113.9731 134° Southeast 277 319 9,700  Level Salt Lake Center
Fri 03:30:00 PM 46.6142 -113.6129 126° Southeast  Level Estimated
Fri 03:30:45 PM 46.6553 -113.8661 130° Southeast 325 374 10,800  Level Salt Lake Center
Fri 03:31:00 PM 46.5383 -113.4943 139° Southeast  Level Estimated
Fri 03:31:47 PM 46.5917 -113.7589 131° Southeast 350 403 12,400  Level Salt Lake Center
Fri 03:32:49 PM 46.5269 -113.6506 131° Southeast 354 407 13,900 1,452 Climbing Salt Lake Center
Fri 03:33:51 PM 46.4564 -113.5311 131° Southeast 362 417 15,400 1,500 Climbing Salt Lake Center
Fri 03:34:53 PM 46.3872 -113.4158 131° Southeast 377 434 17,000 1,452 Climbing Salt Lake Center
Fri 03:35:55 PM 46.3125 -113.2933 131° Southeast 378 435 18,400 1,210 Climbing Salt Lake Center
Fri 03:36:57 PM 46.2486 -113.1856 131° Southeast 385 443 19,500 1,161 Climbing Salt Lake Center
Fri 03:37:59 PM 46.1681 -113.0558 132° Southeast 388 447 20,800 871 Climbing Salt Lake Center
Fri 03:39:01 PM 46.0958 -112.9394 132° Southeast 395 455 21,300 677 Climbing Salt Lake Center
Fri 03:40:03 PM 46.0128 -112.8025 131° Southeast 411 473 22,200 871 Climbing Salt Lake Center
Fri 03:41:05 PM 45.9386 -112.6839 132° Southeast 416 479 23,100 1,016 Climbing Salt Lake Center
Fri 03:42:07 PM 45.8525 -112.5439 131° Southeast 418 481 24,300 1,113 Climbing Salt Lake Center
Fri 03:43:09 PM 45.7814 -112.4283 131° Southeast 408 470 25,400 919 Climbing Salt Lake Center
Fri 03:44:11 PM 45.6983 -112.2956 132° Southeast 402 463 26,200 677 Climbing Salt Lake Center
Fri 03:45:13 PM 45.6272 -112.1811 132° Southeast 402 463 26,800 672 Climbing Salt Lake Center
Fri 03:46:16 PM 45.5417 -112.0542 134° Southeast 399 459 27,600 677 Climbing Salt Lake Center
Fri 03:47:17 PM 45.4681 -111.9483 135° Southeast 394 453 28,200 537 Climbing Salt Lake Center
Fri 03:48:19 PM 45.3969 -111.8369 132° Southeast 396 456 28,700 484 Climbing Salt Lake Center
Fri 03:49:21 PM 45.3128 -111.7028 132° Southeast 405 466 29,200 484 Climbing Salt Lake Center
Fri 03:50:23 PM 45.2397 -111.5894 132° Southeast 406 467 29,700 532 Climbing Salt Lake Center
Fri 03:51:25 PM 45.1539 -111.4558 132° Southeast 408 470 30,300 532 Climbing Salt Lake Center
Fri 03:52:27 PM 45.0806 -111.3414 132° Southeast 409 471 30,800 532 Climbing Salt Lake Center
Fri 03:53:29 PM 44.9925 -111.2081 133° Southeast 412 474 31,400 484 Climbing Salt Lake Center
Fri 03:54:31 PM 44.9172 -111.0933 133° Southeast 412 474 31,800 435 Climbing Salt Lake Center
Fri 03:55:33 PM 44.8419 -110.9767 132° Southeast 417 480 32,300 532 Climbing Salt Lake Center
Fri 03:56:35 PM 44.7544 -110.8439 133° Southeast 414 476 32,900 339 Climbing Salt Lake Center
Fri 03:57:37 PM 44.6797 -110.7303 133° Southeast 412 474 33,000 48 Climbing Salt Lake Center
Fri 03:58:39 PM 44.5903 -110.5956 133° Southeast 417 480 33,000  Level Salt Lake Center
Fri 03:59:41 PM 44.5125 -110.4781 133° Southeast 427 491 33,000  Level Salt Lake Center
Fri 04:00:43 PM 44.4197 -110.3392 133° Southeast 435 501 33,000  Level Salt Lake Center
Fri 04:01:45 PM 44.3392 -110.2194 133° Southeast 439 505 33,000  Level Salt Lake Center
Fri 04:02:47 PM 44.2436 -110.0808 134° Southeast 443 510 33,000  Level Salt Lake Center
Fri 04:03:49 PM 44.1631 -109.9619 133° Southeast 441 507 33,000  Level Salt Lake Center
Fri 04:04:51 PM 44.0839 -109.8436 133° Southeast 437 503 33,000  Level Salt Lake Center
Fri 04:05:53 PM 43.9897 -109.7061 134° Southeast 439 505 33,000  Level Salt Lake Center
Fri 04:06:55 PM 43.9094 -109.5897 134° Southeast 437 503 33,000  Level Salt Lake Center
Fri 04:07:00 PM 43.9021 -109.5808 134° Southeast  Level FlightAware Approximate
Fri 04:07:57 PM 43.8222 -109.4664 134° Southeast 438 504 33,000  Level Salt Lake Center
Fri 04:08:59 PM 43.7386 -109.3489 135° Southeast 432 497 33,000  Level Salt Lake Center
Fri 04:10:01 PM 43.6369 -109.2028 134° Southeast 439 505 33,000  Level Salt Lake Center
Fri 04:11:03 PM 43.5531 -109.0808 133° Southeast 441 507 33,000  Level Salt Lake Center
Fri 04:12:05 PM 43.4686 -108.9608 134° Southeast 440 506 33,000  Level Salt Lake Center
Fri 04:13:06 PM 43.3828 -108.8417 135° Southeast 440 506 33,000  Level Salt Lake Center
Fri 04:14:08 PM 43.2981 -108.7208 134° Southeast 441 507 33,000  Level Salt Lake Center
Fri 04:15:10 PM 43.2147 -108.6011 134° Southeast 437 503 33,000  Level Salt Lake Center
Fri 04:16:12 PM 43.1119 -108.4592 135° Southeast 439 505 33,000  Level Salt Lake Center
Fri 04:17:14 PM 43.0278 -108.3422 135° Southeast 435 501 33,000  Level Salt Lake Center
Fri 04:18:15 PM 42.9444 -108.2269 135° Southeast 434 499 33,000  Level Salt Lake Center
Fri 04:19:17 PM 42.8636 -108.1153 135° Southeast 431 496 33,000  Level Salt Lake Center
Fri 04:20:19 PM 42.7678 -107.9839 135° Southeast 435 501 33,000  Level Salt Lake Center
Fri 04:21:21 PM 42.6858 -107.8719 135° Southeast 435 501 33,000  Level Salt Lake Center
Fri 04:22:23 PM 42.5911 -107.7419 135° Southeast 433 498 33,000  Level Salt Lake Center
Fri 04:23:24 PM 42.5089 -107.6308 135° Southeast 434 499 33,000  Level Salt Lake Center
Fri 04:24:26 PM 42.4125 -107.5011 135° Southeast 436 502 33,000  Level Salt Lake Center
Fri 04:25:23 PM 42.3300 -107.3897 135° Southeast 436 502 33,000  Level Denver Center
Fri 04:26:37 PM 42.2331 -107.2603 135° Southeast 438 504 33,000  Level Denver Center
Fri 04:27:39 PM 42.1361 -107.1331 136° Southeast 437 503 33,000  Level Denver Center
Fri 04:28:41 PM 42.0350 -107.0575 151° Southeast 436 502 33,000  Level Denver Center
Fri 04:29:43 PM 41.9172 -106.9769 153° Southeast 428 493 33,000  Level Denver Center
Fri 04:30:46 PM 41.8175 -106.9081 153° Southeast 423 487 33,000  Level Denver Center
Fri 04:31:48 PM 41.6997 -106.8289 153° Southeast 423 487 33,000  Level Denver Center
Fri 04:32:50 PM 41.6003 -106.7608 153° Southeast 420 483 33,000  Level Denver Center
Fri 04:33:52 PM 41.4892 -106.7506 176° South 427 491 33,000  Level Denver Center
Fri 04:34:54 PM 41.3636 -106.7611 184° South 411 473 33,000  Level Denver Center
Fri 04:35:56 PM 41.2567 -106.7708 184° South 405 466 33,000 -48 Level Denver Center
Fri 04:36:58 PM 41.1289 -106.7828 184° South 410 472 32,900 -919 Descending Denver Center
Fri 04:38:00 PM 41.0258 -106.7414 163° South 404 465 31,100 -1,694 Descending Denver Center
Fri 04:39:02 PM 40.9425 -106.6269 134° Southeast 388 447 29,400 -1,839 Descending Denver Center
Fri 04:40:04 PM 40.8864 -106.5108 123° Southeast 389 448 27,300 -1,258 Descending Denver Center
Fri 04:41:06 PM 40.8231 -106.3861 124° Southeast 369 425 26,800 -726 Descending Denver Center
Fri 04:42:08 PM 40.7689 -106.2750 123° Southeast 374 430 25,800 -968 Descending Denver Center
Fri 04:43:10 PM 40.7136 -106.1528 121° Southeast 378 435 24,800 -968 Descending Denver Center
Fri 04:44:12 PM 40.6786 -106.0194 109° East 385 443 23,800 -1,065 Descending Denver Center
Fri 04:45:14 PM 40.6086 -105.9244 134° Southeast 367 422 22,600 -1,200 Descending Denver Center
Fri 04:46:17 PM 40.5389 -105.8022 127° Southeast 354 407 21,300 -1,152 Descending Denver Center
Fri 04:47:19 PM 40.4839 -105.6944 124° Southeast 355 409 20,200 -1,065 Descending Denver Center
Fri 04:48:21 PM 40.4267 -105.5806 123° Southeast 370 426 19,100 -1,113 Descending Denver Center
Fri 04:49:23 PM 40.3653 -105.4583 123° Southeast 374 430 17,900 -1,306 Descending Denver Center
Fri 04:50:25 PM 40.3419 -105.3397 104° East 333 383 16,400 -1,548 Descending Denver Center
Fri 04:51:27 PM 40.3247 -105.2150 100° East 324 373 14,700 -1,597 Descending Denver Center
Fri 04:52:29 PM 40.3092 -105.1000 100° East 323 372 13,100 -1,161 Descending Denver Center
Fri 04:53:31 PM 40.2947 -104.9853 99° East 300 345 12,300 -968 Descending Denver Center
Fri 04:54:33 PM 40.2569 -104.9089 123° Southeast 253 291 11,100 -1,161 Descending Denver Center
Fri 04:55:35 PM 40.2094 -104.8342 130° Southeast 248 285 9,900 -794 Descending Denver Center
Fri 04:56:49 PM 40.1478 -104.7961 155° Southeast 246 283 9,300 -964 Descending Denver Center
Fri 04:57:52 PM 40.0747 -104.7478 153° Southeast 240 276 7,700 -1,056 Descending Denver Center
Fri 04:58:54 PM 40.0133 -104.7081 154° Southeast 229 264 7,100 -581 Descending Denver Center
Fri 04:59:56 PM 39.9606 -104.6953 169° South 195 224 6,500 -677 Descending Denver Center
Fri 05:00:58 PM 39.9156 -104.6961 181° South 166 191 5,700 -581 Descending Denver Center
Fri 05:02:00 PM 39.8756 -104.6958 180° South 149 171 5,300 -387 Descending Denver Center

Login

Don't have an account? Register now (free) for customized features, flight alerts, and more!